Time;durP1;ratioP1;P1;durP2;ratioP2;P2;SDS_P1;SDS_P2;PMS_P1;PMS_P2;Temp;Humidity;BMP_temperature;BMP_pressure;BME280_temperature;BME280_humidity;BME280_pressure;Samples;Min_cycle;Max_cycle;Signal;HPM_P1;HPM_P2
2022/12/15 00:39:33;;;;;;;20.45;14.27;;;;;;;2.22;100.00;100154.38;5001607;28;19932;-78
2022/12/15 00:41:58;;;;;;;23.42;12.88;;;;;;;1.97;100.00;100119.16;4998720;28;20042;-77
2022/12/15 00:44:24;;;;;;;21.83;12.90;;;;;;;1.24;100.00;99979.94;5004208;28;20749;-78
2022/12/15 00:46:55;;;;;;;22.50;13.55;;;;;;;1.89;100.00;100103.41;4995892;28;20489;-78
2022/12/15 01:20:19;;;;;;;49.50;13.15;;;;;;;2.43;100.00;100136.88;4996933;28;20061;-77
2022/12/15 01:22:52;;;;;;;19.50;11.50;;;;;;;2.50;100.00;100140.53;5003098;28;20053;-77
2022/12/15 01:25:19;;;;;;;21.85;13.23;;;;;;;1.84;100.00;100017.88;5002597;28;20030;-79
2022/12/15 01:27:45;;;;;;;18.27;10.55;;;;;;;1.57;100.00;99973.13;5003679;28;20026;-75
2022/12/15 01:30:13;;;;;;;32.08;14.98;;;;;;;1.78;100.00;100001.31;5006115;28;20057;-77
2022/12/15 01:32:39;;;;;;;21.58;11.82;;;;;;;1.99;100.00;100038.16;4998966;28;22088;-78
2022/12/15 01:35:05;;;;;;;16.50;12.35;;;;;;;1.69;100.00;99987.31;5002666;28;20756;-78
2022/12/15 01:37:31;;;;;;;25.38;12.18;;;;;;;2.26;100.00;100076.88;5004153;28;20080;-78
2022/12/15 01:42:41;;;;;;;25.55;14.63;;;;;;;1.62;100.00;99958.66;5004691;28;20420;-77
2022/12/15 01:45:25;;;;;;;27.77;16.27;;;;;;;2.42;100.00;100098.03;5000982;28;20046;-80
2022/12/15 01:47:54;;;;;;;22.40;11.73;;;;;;;2.12;100.00;100060.06;5001063;28;20053;-78
2022/12/15 01:50:20;;;;;;;20.17;14.85;;;;;;;1.52;100.00;99951.44;5001555;28;20074;-83
2022/12/15 01:52:47;;;;;;;21.63;13.68;;;;;;;2.16;100.00;100068.81;5001731;28;20567;-77
2022/12/15 01:55:16;;;;;;;19.95;13.45;;;;;;;1.43;100.00;99952.06;5005478;28;20033;-78
2022/12/15 01:57:42;;;;;;;26.27;12.02;;;;;;;2.17;100.00;100074.03;5000292;28;20030;-77
2022/12/15 02:00:08;;;;;;;29.65;16.15;;;;;;;1.56;100.00;99966.22;5002552;28;20070;-79
2022/12/15 02:02:36;;;;;;;24.52;14.82;;;;;;;1.88;100.00;100021.47;4999458;28;20053;-77
2022/12/15 02:05:03;;;;;;;21.45;15.15;;;;;;;2.19;100.00;100064.59;5004964;28;20077;-81
2022/12/15 02:07:28;;;;;;;26.65;16.35;;;;;;;2.14;100.00;100065.31;5003664;28;20454;-79
2022/12/15 02:09:58;;;;;;;19.30;12.48;;;;;;;1.81;100.00;100004.88;5006048;28;20038;-79
2022/12/15 02:12:48;;;;;;;22.33;14.52;;;;;;;2.32;100.00;100087.41;5004668;28;20095;-78
2022/12/15 02:15:23;;;;;;;22.23;13.10;;;;;;;1.96;100.00;100021.66;5000005;28;20440;-79
2022/12/15 02:18:07;;;;;;;25.88;14.32;;;;;;;2.32;100.00;100107.25;5004363;28;20042;-79
2022/12/15 02:21:14;;;;;;;23.77;12.80;;;;;;;2.31;100.00;100087.34;5006073;28;20181;-77
2022/12/15 02:23:58;;;;;;;21.23;13.02;;;;;;;2.34;100.00;100087.44;4925959;29;20063;-77
2022/12/15 02:27:00;;;;;;;19.50;12.65;;;;;;;2.33;100.00;100090.88;4927836;29;20415;-78
2022/12/15 02:29:53;;;;;;;32.88;15.32;;;;;;;2.35;100.00;100094.38;4989851;28;20042;-78
2022/12/15 02:32:33;;;;;;;19.50;12.52;;;;;;;2.28;100.00;100066.56;5002611;28;20058;-80
2022/12/15 02:35:07;;;;;;;27.67;14.30;;;;;;;2.39;100.00;100056.47;5003374;28;20053;-79
2022/12/15 02:37:38;;;;;;;22.08;13.38;;;;;;;2.41;100.00;100076.44;5003616;28;20045;-78
2022/12/15 02:40:06;;;;;;;27.95;14.98;;;;;;;2.37;100.00;100056.47;5005246;28;20498;-78
2022/12/15 02:42:35;;;;;;;20.17;11.32;;;;;;;2.33;100.00;100072.75;5005829;28;20742;-78
2022/12/15 02:45:19;;;;;;;22.67;12.98;;;;;;;2.26;100.00;100044.94;5000934;28;20081;-79
2022/12/15 02:47:51;;;;;;;21.95;12.23;;;;;;;2.48;100.00;100061.91;5000195;28;20053;-78
2022/12/15 02:50:25;;;;;;;25.10;14.55;;;;;;;2.26;100.00;100011.28;5000110;28;20073;-77
2022/12/15 02:53:17;;;;;;;24.75;13.57;;;;;;;2.46;100.00;100043.78;5001697;28;20076;-76
2022/12/15 02:55:56;;;;;;;16.73;11.80;;;;;;;1.78;100.00;99940.13;5006993;28;20046;-76
2022/12/15 02:58:32;;;;;;;17.00;12.32;;;;;;;1.65;100.00;99894.06;5000474;28;20497;-78
2022/12/15 03:01:03;;;;;;;23.85;14.48;;;;;;;2.44;100.00;100036.81;5001403;28;20029;-79
2022/12/15 03:03:31;;;;;;;18.02;11.68;;;;;;;1.92;100.00;99934.44;5001863;28;20493;-80
2022/12/15 03:05:56;;;;;;;22.40;13.40;;;;;;;1.18;100.00;99816.09;5001807;28;20482;-80
2022/12/15 03:08:23;;;;;;;30.13;12.85;;;;;;;1.93;100.00;99933.63;5005372;28;20069;-81
2022/12/15 03:10:53;;;;;;;19.10;11.30;;;;;;;2.62;100.00;100070.06;5007243;28;20116;-77
2022/12/15 03:13:19;;;;;;;16.40;10.65;;;;;;;1.81;100.00;99919.53;5005016;28;20037;-79
2022/12/15 03:15:45;;;;;;;21.95;11.77;;;;;;;2.46;100.00;100037.72;5004731;28;20063;-77
2022/12/15 03:18:10;;;;;;;14.68;11.05;;;;;;;1.94;100.00;99948.31;5001430;28;20509;-78
2022/12/15 03:20:35;;;;;;;19.25;12.43;;;;;;;2.67;100.00;100061.59;5000366;28;20050;-77
2022/12/15 03:23:01;;;;;;;18.52;11.15;;;;;;;2.59;100.00;100057.03;5002994;28;20061;-77
2022/12/15 03:25:28;;;;;;;16.60;10.88;;;;;;;1.52;100.00;99853.19;5001801;28;20556;-77
2022/12/15 03:27:53;;;;;;;16.92;10.60;;;;;;;1.76;100.00;99897.84;5006516;28;20041;-76
2022/12/15 03:30:19;;;;;;;19.50;11.57;;;;;;;1.38;100.00;99830.44;5002012;28;20041;-75
2022/12/15 03:32:45;;;;;;;19.73;10.52;;;;;;;2.05;100.00;99936.53;5000389;28;20050;-80
2022/12/15 03:35:11;;;;;;;15.82;9.85;;;;;;;2.66;100.00;100046.88;5001058;28;20103;-76
2022/12/15 03:37:38;;;;;;;18.55;11.60;;;;;;;1.88;100.00;99897.28;5003594;28;20054;-76
2022/12/15 03:40:04;;;;;;;24.77;13.70;;;;;;;2.44;100.00;99993.66;4999141;28;20073;-76
2022/12/15 03:45:26;;;;;;;20.27;11.50;;;;;;;2.74;100.00;100037.59;4982839;28;20046;-81
2022/12/15 03:47:53;;;;;;;22.88;11.35;;;;;;;1.95;100.00;99899.19;4999642;28;20052;-76
2022/12/15 03:50:24;;;;;;;18.45;11.98;;;;;;;2.60;100.00;100012.16;4993858;28;20042;-77
2022/12/15 03:52:56;;;;;;;21.77;12.02;;;;;;;2.04;100.00;99904.63;4997180;28;20065;-76
2022/12/15 03:55:22;;;;;;;17.52;11.68;;;;;;;2.76;100.00;100027.25;4995920;28;20045;-79
2022/12/15 03:57:48;;;;;;;19.75;10.93;;;;;;;2.06;100.00;99895.19;5003045;28;20141;-78
2022/12/15 04:00:14;;;;;;;19.65;11.73;;;;;;;1.96;100.00;99872.47;4996197;28;20092;-78
2022/12/15 04:02:43;;;;;;;15.38;8.65;;;;;;;2.22;100.00;99918.84;4998215;28;20050;-80
2022/12/15 04:05:21;;;;;;;23.48;11.55;;;;;;;2.68;100.00;99992.53;4998106;28;20152;-77
2022/12/15 04:07:46;;;;;;;19.05;11.50;;;;;;;2.92;100.00;100031.97;4999105;28;20072;-79
2022/12/15 04:10:12;;;;;;;19.98;10.57;;;;;;;2.26;100.00;99923.28;4997842;28;20739;-76
2022/12/15 04:12:41;;;;;;;20.50;11.95;;;;;;;2.96;100.00;100032.94;4998421;28;20050;-80
2022/12/15 04:15:07;;;;;;;22.80;12.15;;;;;;;2.62;100.00;99979.41;4996122;28;20084;-79
2022/12/15 04:17:33;;;;;;;19.70;11.35;;;;;;;2.20;100.00;99903.31;5001748;28;20037;-79
2022/12/15 04:20:10;;;;;;;16.75;11.20;;;;;;;2.87;100.00;100030.97;4995067;28;20061;-79
2022/12/15 04:22:42;;;;;;;19.65;12.82;;;;;;;3.00;100.00;100042.53;4995129;28;20059;-79
2022/12/15 05:33:55;;;;;;;22.33;12.50;;;;;;;3.28;100.00;100061.38;4998985;28;20052;-79
2022/12/15 05:36:21;;;;;;;18.02;11.65;;;;;;;2.45;100.00;99932.38;5002910;28;20064;-80
2022/12/15 05:38:51;;;;;;;21.35;13.90;;;;;;;2.92;100.00;100010.38;5000114;28;20088;-78
2022/12/15 05:41:18;;;;;;;17.63;10.88;;;;;;;3.38;100.00;100081.47;4999492;28;20050;-76
2022/12/15 05:43:44;;;;;;;19.90;13.30;;;;;;;3.36;100.00;100085.75;5004056;28;20116;-76
2022/12/15 05:46:10;;;;;;;18.58;10.55;;;;;;;3.30;100.00;100083.88;4998617;28;20037;-77
2022/12/15 05:48:35;;;;;;;19.38;12.80;;;;;;;3.16;100.00;100041.19;4994957;28;21041;-76
2022/12/15 05:51:09;;;;;;;21.67;13.63;;;;;;;2.84;100.00;99968.75;5000709;28;20053;-78
2022/12/15 05:53:35;;;;;;;;;;;;;;;3.76;100.00;100112.59;4997016;28;20124;-76
2022/12/15 05:56:10;;;;;;;22.90;12.23;;;;;;;3.56;100.00;100092.28;4999085;28;19929;-77
2022/12/15 05:58:36;;;;;;;19.58;11.73;;;;;;;3.14;100.00;100027.34;5000901;28;20149;-79
2022/12/15 06:01:07;;;;;;;24.98;11.70;;;;;;;3.33;100.00;100067.53;5002318;28;20038;-77
2022/12/15 06:03:33;;;;;;;24.20;13.00;;;;;;;3.39;100.00;100093.59;4997204;28;20038;-77
2022/12/15 06:05:59;;;;;;;30.70;9.98;;;;;;;3.27;100.00;100060.47;4999057;28;20055;-77
2022/12/15 06:08:27;;;;;;;18.85;13.82;;;;;;;3.57;100.00;100106.13;5000244;28;20167;-82
2022/12/15 06:10:53;;;;;;;14.57;10.07;;;;;;;3.52;100.00;100103.41;4998566;28;20053;-79
2022/12/15 06:13:19;;;;;;;23.67;14.13;;;;;;;3.71;100.00;100116.81;5001786;28;20064;-77
2022/12/15 06:15:56;;;;;;;16.95;10.07;;;;;;;3.78;100.00;100103.13;5000015;28;20144;-81
2022/12/15 06:18:23;;;;;;;21.27;12.45;;;;;;;4.05;100.00;100127.94;5006802;28;20041;-78
2022/12/15 06:20:48;;;;;;;17.45;9.57;;;;;;;4.13;100.00;100129.84;5003735;28;20054;-78
2022/12/15 06:23:15;;;;;;;26.35;12.15;;;;;;;3.38;100.00;99990.72;4997967;28;20116;-81
2022/12/15 06:25:40;;;;;;;22.50;12.98;;;;;;;3.99;100.00;100085.44;5002281;28;20064;-76
2022/12/15 06:28:07;;;;;;;27.25;13.05;;;;;;;3.18;100.00;99930.63;5007309;28;20619;-77
2022/12/15 06:30:33;;;;;;;24.92;15.40;;;;;;;3.56;100.00;99998.91;4998789;28;20093;-78
2022/12/15 06:32:58;;;;;;;33.28;11.77;;;;;;;4.21;100.00;100104.94;4996206;28;20045;-76
2022/12/15 06:35:24;;;;;;;26.10;14.63;;;;;;;4.28;100.00;100120.63;4996227;28;20059;-77
2022/12/15 06:37:49;;;;;;;16.60;10.18;;;;;;;4.20;100.00;100089.31;4997537;28;20058;-77
2022/12/15 06:40:15;;;;;;;27.92;13.57;;;;;;;4.44;100.00;100123.56;4995294;28;20501;-79
2022/12/15 06:42:40;;;;;;;20.98;12.27;;;;;;;3.80;100.00;100018.41;5005252;28;20440;-80
2022/12/15 06:45:07;;;;;;;24.88;14.43;;;;;;;3.94;100.00;100060.22;5004861;28;20050;-83
2022/12/15 06:47:32;;;;;;;21.50;12.27;;;;;;;3.98;100.00;100059.44;5002858;28;20107;-83
2022/12/15 06:49:58;;;;;;;33.00;14.38;;;;;;;4.51;100.00;100163.53;5004277;28;20053;-80
2022/12/15 06:52:23;;;;;;;25.02;17.20;;;;;;;4.33;100.00;100143.28;5005509;28;20026;-81
2022/12/15 06:54:48;;;;;;;22.73;14.82;;;;;;;3.74;100.00;100026.94;4997296;28;20049;-79
2022/12/15 06:57:14;;;;;;;35.58;15.73;;;;;;;4.11;100.00;100096.91;5023120;28;20112;-80
2022/12/15 06:59:39;;;;;;;20.85;12.70;;;;;;;4.44;100.00;100135.69;5005824;28;20066;-79
2022/12/15 07:02:16;;;;;;;22.67;13.52;;;;;;;4.50;100.00;100155.75;5005689;28;20069;-79
2022/12/15 07:04:42;;;;;;;24.13;12.73;;;;;;;4.39;100.00;100129.53;5000529;28;20053;-81
2022/12/15 07:07:09;;;;;;;22.63;12.90;;;;;;;4.70;100.00;100205.50;5001583;28;20045;-78
2022/12/15 07:09:35;;;;;;;26.00;13.18;;;;;;;4.16;100.00;100116.06;5001243;28;20056;-80
2022/12/15 07:12:00;;;;;;;24.20;14.60;;;;;;;3.33;100.00;99971.59;5000773;28;21169;-79
2022/12/15 07:14:27;;;;;;;22.38;11.82;;;;;;;4.48;100.00;100186.00;5001942;28;20088;-79
2022/12/15 07:16:53;;;;;;;14.38;10.23;;;;;;;3.94;100.00;100117.34;5001870;28;20486;-78
2022/12/15 07:19:19;;;;;;;19.90;10.77;;;;;;;3.49;100.00;100042.78;5001031;28;20038;-77
2022/12/15 07:21:44;;;;;;;23.60;12.60;;;;;;;3.93;100.00;100103.50;5000152;28;20541;-81
2022/12/15 07:24:11;;;;;;;22.60;12.23;;;;;;;4.28;100.00;100142.28;5002231;28;20773;-79
2022/12/15 07:26:37;;;;;;;21.80;12.23;;;;;;;4.46;100.00;100161.72;5000832;28;20593;-79
2022/12/15 07:29:03;;;;;;;20.50;12.35;;;;;;;4.84;100.00;100223.09;5003326;28;20054;-81
2022/12/15 07:31:29;;;;;;;21.42;14.02;;;;;;;4.89;100.00;100205.00;4999995;28;20042;-74
2022/12/15 07:33:59;;;;;;;27.60;14.40;;;;;;;4.18;100.00;100080.63;5003691;28;20087;-75
2022/12/15 07:36:26;;;;;;;20.85;13.52;;;;;;;4.85;100.00;100198.88;5006281;28;20053;-76
2022/12/15 07:38:56;;;;;;;23.58;13.27;;;;;;;4.67;100.00;100179.47;5004088;28;20050;-76
2022/12/15 07:41:22;;;;;;;25.50;15.75;;;;;;;4.94;100.00;100223.28;5003538;28;20119;-75
2022/12/15 07:43:47;;;;;;;22.02;14.27;;;;;;;4.97;100.00;100202.56;4996000;28;20088;-77
2022/12/15 07:46:13;;;;;;;23.80;14.48;;;;;;;4.98;100.00;100199.13;5001489;28;20045;-73
2022/12/15 07:48:39;;;;;;;23.20;14.65;;;;;;;5.18;100.00;100215.09;5002739;28;20072;-72
2022/12/15 07:51:06;;;;;;;24.80;15.02;;;;;;;4.96;100.00;100222.47;5000708;28;20050;-75
2022/12/15 07:53:41;;;;;;;25.98;16.27;;;;;;;5.05;100.00;100211.38;5000513;28;20107;-77
2022/12/15 07:56:18;;;;;;;29.15;17.42;;;;;;;3.72;100.00;99984.53;4984229;28;20200;-76
2022/12/15 07:59:03;;;;;;;23.88;15.73;;;;;;;5.31;100.00;100235.28;4995966;28;20056;-73
2022/12/15 08:01:37;;;;;;;36.60;16.25;;;;;;;3.91;100.00;99971.91;5002618;28;20045;-72
2022/12/15 08:04:07;;;;;;;29.98;18.95;;;;;;;3.37;100.00;99909.44;5025071;28;20045;-74
2022/12/15 08:06:35;;;;;;;35.80;18.08;;;;;;;5.14;100.00;100197.69;4979620;28;20497;-73
2022/12/15 08:09:05;;;;;;;33.38;20.23;;;;;;;4.45;100.00;100098.50;5004668;28;20038;-74
2022/12/15 08:12:06;;;;;;;23.95;17.17;;;;;;;4.56;100.00;100085.69;4988869;28;20105;-76
2022/12/15 08:14:40;;;;;;;30.45;19.48;;;;;;;5.43;100.00;100237.22;5002491;28;20072;-74
2022/12/15 08:17:26;;;;;;;35.95;20.30;;;;;;;5.58;100.00;100260.94;4997283;28;20516;-75
2022/12/15 08:19:54;;;;;;;22.85;16.08;;;;;;;5.46;100.00;100237.31;5002831;28;20082;-72
2022/12/15 08:22:19;;;;;;;25.27;16.23;;;;;;;4.70;100.00;100097.22;4987037;28;20133;-74
2022/12/15 08:24:47;;;;;;;27.35;16.02;;;;;;;5.36;100.00;100212.84;5009957;28;20053;-75
2022/12/15 08:27:42;;;;;;;24.98;16.58;;;;;;;5.85;100.00;100276.16;4994795;28;20058;-73
2022/12/15 08:30:15;;;;;;;24.08;16.15;;;;;;;5.16;100.00;100137.03;4994681;28;20124;-72
2022/12/15 08:32:55;;;;;;;26.58;14.57;;;;;;;4.67;100.00;100047.78;4998175;28;20141;-75
2022/12/15 08:35:25;;;;;;;16.35;9.68;;;;;;;5.23;100.00;100149.31;5002072;28;20215;-74
2022/12/15 08:38:07;;;;;;;15.55;9.98;;;;;;;5.22;100.00;100163.19;5021105;28;20093;-76
2022/12/15 08:40:41;;;;;;;20.10;11.13;;;;;;;4.89;100.00;100101.03;4987025;28;20046;-75
2022/12/15 08:43:21;;;;;;;;;;;;;;;5.89;100.00;100266.66;5001586;28;20136;-75
2022/12/15 08:46:25;;;;;;;16.30;8.32;;;;;;;4.64;100.00;100060.75;4992040;28;19936;-73
2022/12/15 08:49:15;;;;;;;15.63;10.20;;;;;;;5.75;100.00;100237.78;5017227;28;20143;-73
2022/12/15 08:51:59;;;;;;;14.15;10.10;;;;;;;5.65;100.00;100233.28;4999674;28;20066;-76
2022/12/15 08:54:44;;;;;;;18.50;10.65;;;;;;;4.86;100.00;100075.84;4999292;28;20654;-74
2022/12/15 08:57:36;;;;;;;14.10;9.95;;;;;;;4.92;100.00;100082.91;4985567;28;20045;-75
2022/12/15 09:00:05;;;;;;;20.88;10.27;;;;;;;5.08;100.00;100107.44;4988340;28;20208;-74
2022/12/15 09:02:31;;;;;;;14.20;9.65;;;;;;;5.14;100.00;100140.47;5013486;28;20045;-75
2022/12/15 09:05:11;;;;;;;18.20;10.82;;;;;;;5.12;100.00;100145.63;4993628;28;20049;-75
2022/12/15 09:07:45;;;;;;;12.48;9.88;;;;;;;5.00;100.00;100099.50;5002496;28;20521;-75
2022/12/15 09:10:44;;;;;;;14.40;9.85;;;;;;;5.62;100.00;100184.66;4998061;28;20100;-72
2022/12/15 09:13:44;;;;;;;14.60;9.90;;;;;;;5.25;100.00;100124.19;4989694;28;20081;-74
2022/12/15 09:16:16;;;;;;;15.43;9.48;;;;;;;5.59;100.00;100144.69;4967158;28;20073;-73
2022/12/15 09:18:59;;;;;;;13.43;8.07;;;;;;;5.38;100.00;100114.84;5000730;28;20057;-73
2022/12/15 09:21:51;;;;;;;17.23;9.18;;;;;;;4.18;100.00;99917.91;4963535;28;20054;-74
2022/12/15 09:24:24;;;;;;;17.17;9.50;;;;;;;5.80;100.00;100165.84;5001273;28;20041;-76
2022/12/15 09:27:14;;;;;;;16.30;9.93;;;;;;;5.23;100.00;100063.47;5016529;28;20059;-75
2022/12/15 09:30:08;;;;;;;17.00;10.02;;;;;;;6.44;100.00;100249.31;5015982;28;20122;-74
2022/12/15 09:32:48;;;;;;;15.48;9.88;;;;;;;5.57;100.00;100139.47;4986075;28;20163;-74
2022/12/15 09:35:16;;;;;;;16.08;11.27;;;;;;;5.24;100.00;100109.47;4967608;28;20050;-74
2022/12/15 09:37:48;;;;;;;13.23;9.20;;;;;;;5.86;100.00;100165.94;4997123;28;20066;-73
2022/12/15 09:40:34;;;;;;;13.95;9.15;;;;;;;5.76;100.00;100130.22;4999578;28;20092;-74
2022/12/15 09:43:01;;;;;;;;;;;;;;;6.53;100.00;100253.75;4994879;28;20092;-73
2022/12/15 09:45:38;;;;;;;17.67;9.55;;;;;;;4.80;100.00;99939.69;5000213;28;19964;-73
2022/12/15 09:48:25;;;;;;;9.77;7.22;;;;;;;6.61;100.00;100257.34;5005323;28;20064;-73
2022/12/15 09:51:28;;;;;;;11.32;7.18;;;;;;;5.16;100.00;100003.53;5003058;28;20038;-73
2022/12/15 09:54:28;;;;;;;11.27;8.77;;;;;;;6.13;100.00;100215.00;4997135;28;20226;-75
2022/12/15 09:57:01;;;;;;;10.85;7.32;;;;;;;5.17;100.00;100039.94;5004147;28;20059;-74
2022/12/15 10:00:12;;;;;;;11.43;7.65;;;;;;;6.04;100.00;100167.97;5006568;28;20035;-74
2022/12/15 10:03:25;;;;;;;14.82;7.82;;;;;;;6.62;100.00;100235.63;5000123;28;20160;-75
2022/12/15 10:06:51;;;;;;;9.85;7.20;;;;;;;6.60;100.00;100233.88;5003587;28;20164;-73
2022/12/15 10:09:48;;;;;;;10.60;7.72;;;;;;;4.93;100.00;99925.19;5006336;28;20041;-72
2022/12/15 10:12:49;;;;;;;12.18;7.68;;;;;;;6.32;100.00;100205.72;4983679;28;20046;-73
2022/12/15 10:15:23;;;;;;;10.77;8.07;;;;;;;6.34;100.00;100204.00;5003136;28;20061;-73
2022/12/15 10:17:58;;;;;;;13.93;9.00;;;;;;;5.95;100.00;100131.38;4995968;28;20072;-74
2022/12/15 10:20:30;;;;;;;13.30;10.32;;;;;;;6.50;100.00;100207.66;5019417;28;20413;-73
2022/12/15 10:23:10;;;;;;;14.30;8.43;;;;;;;6.00;100.00;100128.84;5003914;28;20054;-73
2022/12/15 10:25:35;;;;;;;14.38;8.27;;;;;;;6.15;100.00;100162.91;5001694;28;20106;-73
2022/12/15 10:28:01;;;;;;;11.57;8.00;;;;;;;6.61;100.00;100238.25;5005453;28;20500;-73
2022/12/15 10:30:26;;;;;;;12.05;7.72;;;;;;;6.20;100.00;100241.13;5003849;28;20050;-74
2022/12/15 10:33:16;;;;;;;14.82;10.70;;;;;;;6.61;100.00;100252.13;5004772;28;20061;-74
2022/12/15 10:35:42;;;;;;;14.15;7.22;;;;;;;6.54;100.00;100222.50;5003616;28;20049;-73
2022/12/15 10:38:29;;;;;;;17.92;7.00;;;;;;;6.01;100.00;100123.63;5011936;28;20050;-73
2022/12/15 10:40:58;;;;;;;11.82;8.35;;;;;;;6.15;100.00;100144.66;5000165;28;20133;-74
2022/12/15 10:43:34;;;;;;;10.82;7.05;;;;;;;5.99;100.00;100143.56;5000371;28;20501;-75
2022/12/15 10:46:09;;;;;;;10.27;6.78;;;;;;;6.62;100.00;100263.44;5003345;28;20080;-74
2022/12/15 10:48:36;;;;;;;10.70;8.80;;;;;;;6.71;100.00;100246.19;4995453;28;20158;-73
2022/12/15 10:51:25;;;;;;;11.45;7.53;;;;;;;6.54;100.00;100252.91;5005230;28;20119;-74
2022/12/15 10:54:12;;;;;;;14.75;7.25;;;;;;;6.54;100.00;100248.56;5001582;28;20087;-74
2022/12/15 10:56:55;;;;;;;13.30;8.88;;;;;;;6.67;100.00;100261.75;5000574;28;20061;-73
2022/12/15 10:59:37;;;;;;;13.07;7.95;;;;;;;6.67;100.00;100256.53;5003127;28;20100;-73
2022/12/15 11:02:31;;;;;;;12.02;8.55;;;;;;;6.64;100.00;100246.97;4997675;28;20417;-74
2022/12/15 11:05:04;;;;;;;10.05;8.45;;;;;;;6.12;100.00;100163.75;5002667;28;20111;-75
2022/12/15 11:07:35;;;;;;;10.35;7.63;;;;;;;6.75;100.00;100249.72;5003458;28;20164;-73
2022/12/15 11:10:12;;;;;;;15.30;10.57;;;;;;;6.06;100.00;100153.25;5001769;28;20491;-73
2022/12/15 11:12:50;;;;;;;16.65;12.13;;;;;;;6.47;100.00;100204.16;4999230;28;20180;-73
2022/12/15 11:15:18;;;;;;;14.00;9.45;;;;;;;6.52;100.00;100271.13;5004062;28;20481;-73
2022/12/15 11:17:44;;;;;;;12.45;7.90;;;;;;;6.66;100.00;100252.22;5005429;28;20085;-75
2022/12/15 11:20:20;;;;;;;13.68;10.90;;;;;;;6.63;100.00;100224.38;5024144;28;20125;-74
2022/12/15 11:22:55;;;;;;;13.98;9.63;;;;;;;6.44;100.00;100244.09;5000941;28;20081;-72
2022/12/15 11:25:23;;;;;;;11.07;7.63;;;;;;;6.26;100.00;100255.13;5002773;28;20661;-73
2022/12/15 11:27:53;;;;;;;13.90;8.85;;;;;;;6.24;100.00;100235.97;5000998;28;20183;-74
2022/12/15 11:30:23;;;;;;;14.85;10.85;;;;;;;6.29;100.00;100265.56;5002004;28;20162;-74
2022/12/15 11:32:52;;;;;;;15.85;10.05;;;;;;;5.69;100.00;100136.19;5005031;28;20556;-76
2022/12/15 11:36:06;;;;;;;15.13;8.95;;;;;;;6.53;100.00;100265.09;5000351;28;20137;-75
2022/12/15 11:38:52;;;;;;;10.68;7.78;;;;;;;5.65;100.00;100145.66;5001830;28;20225;-73
2022/12/15 11:41:37;;;;;;;15.73;10.10;;;;;;;6.20;100.00;100196.84;5003627;28;20042;-75
2022/12/15 11:44:40;;;;;;;12.50;8.35;;;;;;;6.41;100.00;100258.81;5001896;28;20109;-73
2022/12/15 11:47:18;;;;;;;14.32;8.38;;;;;;;5.86;100.00;100139.91;5001630;28;20073;-75
2022/12/15 11:50:15;;;;;;;14.45;7.07;;;;;;;6.44;100.00;100256.22;5000575;28;20045;-75
2022/12/15 11:52:59;;;;;;;15.65;8.68;;;;;;;6.56;100.00;100259.03;4989502;28;20085;-74
2022/12/15 11:55:37;;;;;;;;;;;;;;;6.37;100.00;100264.81;4995603;28;20042;-74
2022/12/15 11:58:10;;;;;;;19.20;8.00;;;;;;;6.26;100.00;100264.69;5002676;28;19946;-75
2022/12/15 12:00:41;;;;;;;;;;;;;;;6.45;100.00;100266.69;5000959;28;20574;-73
2022/12/15 12:03:40;;;;;;;17.00;8.65;;;;;;;6.26;100.00;100242.09;5000987;28;20023;-74
2022/12/15 12:06:33;;;;;;;11.43;7.80;;;;;;;6.34;100.00;100230.06;5002404;28;20042;-78
2022/12/15 12:09:28;;;;;;;13.67;7.90;;;;;;;6.05;100.00;100223.53;5003136;28;20042;-77
2022/12/15 12:12:15;;;;;;;14.23;8.52;;;;;;;6.41;100.00;100271.84;4999764;28;20050;-76
2022/12/15 12:15:11;;;;;;;13.15;7.57;;;;;;;6.58;100.00;100282.50;5001662;28;20064;-77
2022/12/15 12:17:54;;;;;;;12.00;8.95;;;;;;;5.96;100.00;100193.03;5001656;28;20088;-78
2022/12/15 12:20:45;;;;;;;13.95;8.80;;;;;;;6.08;100.00;100194.94;5005041;28;20079;-75
2022/12/15 12:23:27;;;;;;;15.25;10.73;;;;;;;5.71;100.00;100192.63;5001247;28;20050;-77
2022/12/15 12:26:05;;;;;;;12.77;8.60;;;;;;;6.50;100.00;100311.06;5002881;28;20053;-77
2022/12/15 12:28:45;;;;;;;17.10;10.07;;;;;;;5.99;100.00;100210.41;4996474;28;20049;-79
2022/12/15 12:31:33;;;;;;;20.08;15.40;;;;;;;6.19;100.00;100266.31;5002371;28;20188;-78
2022/12/15 12:34:07;;;;;;;14.95;10.68;;;;;;;5.59;100.00;100149.88;4994929;28;20124;-76
2022/12/15 12:36:33;;;;;;;28.20;14.35;;;;;;;5.83;100.00;100201.44;4993786;28;20057;-75
2022/12/15 12:39:00;;;;;;;14.02;8.90;;;;;;;5.29;100.00;100122.50;4996386;28;20464;-78
2022/12/15 12:42:08;;;;;;;18.67;14.38;;;;;;;5.74;100.00;100180.50;4998306;28;20482;-75
2022/12/15 12:44:37;;;;;;;21.38;10.52;;;;;;;6.27;100.00;100305.50;5003921;28;20053;-76
2022/12/15 12:47:22;;;;;;;21.90;13.15;;;;;;;6.06;100.00;100270.47;4996479;28;20048;-76
2022/12/15 12:49:59;;;;;;;14.50;10.15;;;;;;;6.40;100.00;100356.09;5004270;28;20775;-79
2022/12/15 12:52:36;;;;;;;17.98;13.30;;;;;;;6.29;100.00;100338.53;4999261;28;20042;-76
2022/12/15 12:55:41;;;;;;;17.92;10.93;;;;;;;6.19;100.00;100339.25;4997594;28;20056;-76
2022/12/15 12:58:38;;;;;;;15.88;9.77;;;;;;;5.96;100.00;100312.81;4996760;28;20129;-78
2022/12/15 13:01:17;;;;;;;24.33;12.45;;;;;;;6.17;100.00;100364.41;4978584;28;20408;-77
2022/12/15 13:03:43;;;;;;;24.08;15.82;;;;;;;5.72;100.00;100314.09;5002852;28;20057;-78
2022/12/15 13:06:43;;;;;;;20.70;11.43;;;;;;;6.15;100.00;100367.81;5009077;28;20406;-78
2022/12/15 13:09:35;;;;;;;16.42;10.43;;;;;;;5.00;100.00;100234.69;4998491;28;20050;-81
2022/12/15 13:12:00;;;;;;;16.15;9.32;;;;;;;5.91;100.00;100356.09;4999013;28;20043;-76
2022/12/15 13:14:38;;;;;;;16.38;11.13;;;;;;;5.94;100.00;100374.41;4999700;28;20061;-76
2022/12/15 13:17:36;;;;;;;14.43;9.23;;;;;;;5.24;100.00;100257.72;5000987;28;20101;-76
2022/12/15 13:20:04;;;;;;;11.80;8.43;;;;;;;6.08;100.00;100382.47;5002966;28;20498;-78
2022/12/15 13:22:35;;;;;;;15.40;10.65;;;;;;;5.72;100.00;100334.06;5006424;28;20042;-76
2022/12/15 13:25:21;;;;;;;14.98;9.43;;;;;;;5.25;100.00;100287.22;5005019;28;20133;-75
2022/12/15 13:27:51;;;;;;;16.30;8.43;;;;;;;6.05;100.00;100382.44;5006477;28;20050;-77
2022/12/15 13:30:17;;;;;;;15.00;8.95;;;;;;;5.16;100.00;100248.00;5007171;28;20133;-79
2022/12/15 13:32:50;;;;;;;17.00;12.85;;;;;;;5.77;100.00;100368.88;5003624;28;20120;-79
2022/12/15 13:35:31;;;;;;;14.63;8.18;;;;;;;4.90;100.00;100260.50;4999952;28;20035;-75
2022/12/15 13:38:01;;;;;;;16.92;9.07;;;;;;;5.48;100.00;100376.13;5006229;28;20050;-76
2022/12/15 13:40:50;;;;;;;16.10;10.77;;;;;;;5.52;100.00;100393.53;5007519;28;20701;-77
2022/12/15 13:43:25;;;;;;;18.08;9.55;;;;;;;5.71;100.00;100420.81;5006987;28;20065;-80
2022/12/15 13:45:54;;;;;;;14.35;9.00;;;;;;;5.13;100.00;100308.66;5007048;28;20057;-77
2022/12/15 13:48:53;;;;;;;21.00;11.27;;;;;;;5.66;100.00;100414.63;5007025;28;20057;-78
2022/12/15 13:51:42;;;;;;;14.85;10.23;;;;;;;5.36;100.00;100363.75;5006749;28;20042;-79
2022/12/15 13:54:22;;;;;;;15.27;9.35;;;;;;;5.16;100.00;100344.25;5009602;28;20053;-81
2022/12/15 13:57:03;;;;;;;17.15;9.85;;;;;;;5.15;100.00;100332.97;5011201;28;20053;-83
2022/12/15 13:59:43;;;;;;;17.50;9.90;;;;;;;5.54;100.00;100446.50;5001734;28;20046;-79
2022/12/15 14:02:27;;;;;;;18.30;9.55;;;;;;;5.58;100.00;100411.88;5002647;28;20207;-76
2022/12/15 14:05:10;;;;;;;14.23;8.30;;;;;;;4.76;100.00;100276.69;5005063;28;20133;-77
2022/12/15 14:07:38;;;;;;;13.55;8.82;;;;;;;4.66;100.00;100266.94;5004514;28;20042;-80
2022/12/15 14:10:14;;;;;;;18.67;11.07;;;;;;;5.64;100.00;100448.47;5002539;28;20116;-78
2022/12/15 14:12:40;;;;;;;18.13;9.45;;;;;;;5.41;100.00;100400.28;4992571;28;20599;-76
2022/12/15 14:15:13;;;;;;;17.17;11.95;;;;;;;5.45;100.00;100418.53;5005541;28;20133;-77